sensor_id;sensor_type;location;lat;lon;timestamp;pressure;altitude;pressure_sealevel;temperature;humidity
60583;BME280;46415;47.536;19.066;2023-07-29T00:02:20;-18751.50;;;19.29;100.00
60583;BME280;46415;47.536;19.066;2023-07-29T00:05:25;-18751.91;;;19.30;100.00
60583;BME280;46415;47.536;19.066;2023-07-29T00:08:27;-18750.69;;;19.26;100.00
60583;BME280;46415;47.536;19.066;2023-07-29T00:11:30;-18748.94;;;19.19;100.00
60583;BME280;46415;47.536;19.066;2023-07-29T00:14:34;-18745.94;;;19.08;100.00
60583;BME280;46415;47.536;19.066;2023-07-29T00:17:37;-18745.00;;;19.04;100.00
60583;BME280;46415;47.536;19.066;2023-07-29T00:20:40;-18744.16;;;19.01;100.00
60583;BME280;46415;47.536;19.066;2023-07-29T00:23:42;-18742.13;;;18.94;100.00
60583;BME280;46415;47.536;19.066;2023-07-29T00:26:45;-18742.00;;;18.93;100.00
60583;BME280;46415;47.536;19.066;2023-07-29T00:29:48;-18740.78;;;18.89;100.00
60583;BME280;46415;47.536;19.066;2023-07-29T00:32:50;-18740.50;;;18.88;100.00
60583;BME280;46415;47.536;19.066;2023-07-29T00:35:53;-18739.81;;;18.85;100.00
60583;BME280;46415;47.536;19.066;2023-07-29T00:38:56;-18739.16;;;18.83;100.00
60583;BME280;46415;47.536;19.066;2023-07-29T00:41:59;-18737.66;;;18.77;100.00
60583;BME280;46415;47.536;19.066;2023-07-29T00:45:02;-18736.28;;;18.72;100.00
60583;BME280;46415;47.536;19.066;2023-07-29T00:48:05;-18735.19;;;18.68;100.00
60583;BME280;46415;47.536;19.066;2023-07-29T00:51:08;-18735.34;;;18.68;100.00
60583;BME280;46415;47.536;19.066;2023-07-29T00:54:11;-18737.09;;;18.75;100.00
60583;BME280;46415;47.536;19.066;2023-07-29T00:57:16;-18735.75;;;18.70;100.00
60583;BME280;46415;47.536;19.066;2023-07-29T01:00:20;-18734.38;;;18.65;100.00
60583;BME280;46415;47.536;19.066;2023-07-29T01:03:22;-18734.25;;;18.64;100.00
60583;BME280;46415;47.536;19.066;2023-07-29T01:07:01;-18733.97;;;18.63;100.00
60583;BME280;46415;47.536;19.066;2023-07-29T01:09:55;-18732.63;;;18.58;100.00
60583;BME280;46415;47.536;19.066;2023-07-29T01:20:00;-18725.13;;;18.30;100.00
60583;BME280;46415;47.536;19.066;2023-07-29T01:23:05;-18724.84;;;18.29;100.00
60583;BME280;46415;47.536;19.066;2023-07-29T01:26:09;-18724.72;;;18.29;100.00
60583;BME280;46415;47.536;19.066;2023-07-29T01:29:12;-18723.78;;;18.25;100.00
60583;BME280;46415;47.536;19.066;2023-07-29T01:32:17;-18722.56;;;18.21;100.00
60583;BME280;46415;47.536;19.066;2023-07-29T01:38:28;-18720.38;;;18.13;100.00
60583;BME280;46415;47.536;19.066;2023-07-29T01:41:34;-18720.25;;;18.12;100.00
60583;BME280;46415;47.536;19.066;2023-07-29T01:44:37;-18720.09;;;18.12;100.00
60583;BME280;46415;47.536;19.066;2023-07-29T01:47:40;-18719.41;;;18.09;100.00
60583;BME280;46415;47.536;19.066;2023-07-29T01:50:44;-18723.78;;;18.25;100.00
60583;BME280;46415;47.536;19.066;2023-07-29T01:53:46;-18726.09;;;18.34;100.00
60583;BME280;46415;47.536;19.066;2023-07-29T01:56:49;-18728.66;;;18.44;100.00
60583;BME280;46415;47.536;19.066;2023-07-29T01:59:53;-18727.03;;;18.37;100.00
60583;BME280;46415;47.536;19.066;2023-07-29T02:02:56;-18724.03;;;18.26;100.00
60583;BME280;46415;47.536;19.066;2023-07-29T02:05:59;-18721.47;;;18.17;100.00
60583;BME280;46415;47.536;19.066;2023-07-29T02:09:02;-18718.59;;;18.06;100.00
60583;BME280;46415;47.536;19.066;2023-07-29T02:12:06;-18715.34;;;17.94;100.00
60583;BME280;46415;47.536;19.066;2023-07-29T02:15:11;-18714.25;;;17.90;100.00
60583;BME280;46415;47.536;19.066;2023-07-29T02:18:14;-18713.44;;;17.87;100.00
60583;BME280;46415;47.536;19.066;2023-07-29T02:21:17;-18713.03;;;17.85;100.00
60583;BME280;46415;47.536;19.066;2023-07-29T02:24:20;-18712.91;;;17.85;100.00
60583;BME280;46415;47.536;19.066;2023-07-29T02:27:22;-18711.13;;;17.78;100.00
60583;BME280;46415;47.536;19.066;2023-07-29T02:30:27;-18710.84;;;17.77;100.00
60583;BME280;46415;47.536;19.066;2023-07-29T02:33:30;-18709.91;;;17.74;100.00
60583;BME280;46415;47.536;19.066;2023-07-29T02:36:33;-18710.44;;;17.76;100.00
60583;BME280;46415;47.536;19.066;2023-07-29T02:39:36;-18710.72;;;17.77;100.00
60583;BME280;46415;47.536;19.066;2023-07-29T02:42:39;-18710.84;;;17.77;100.00
60583;BME280;46415;47.536;19.066;2023-07-29T02:45:42;-18710.44;;;17.76;100.00
60583;BME280;46415;47.536;19.066;2023-07-29T02:48:44;-18709.91;;;17.74;100.00
60583;BME280;46415;47.536;19.066;2023-07-29T02:51:47;-18711.66;;;17.80;100.00
60583;BME280;46415;47.536;19.066;2023-07-29T02:54:50;-18711.00;;;17.78;100.00
60583;BME280;46415;47.536;19.066;2023-07-29T02:57:53;-18709.22;;;17.71;100.00
60583;BME280;46415;47.536;19.066;2023-07-29T03:01:02;-18708.13;;;17.67;100.00
60583;BME280;46415;47.536;19.066;2023-07-29T03:04:05;-18706.91;;;17.63;100.00
60583;BME280;46415;47.536;19.066;2023-07-29T03:07:08;-18706.50;;;17.61;100.00
60583;BME280;46415;47.536;19.066;2023-07-29T03:10:11;-18706.22;;;17.60;100.00
60583;BME280;46415;47.536;19.066;2023-07-29T03:13:14;-18704.44;;;17.53;100.00
60583;BME280;46415;47.536;19.066;2023-07-29T03:16:17;-18702.69;;;17.47;100.00
60583;BME280;46415;47.536;19.066;2023-07-29T03:19:20;-18703.09;;;17.48;100.00
60583;BME280;46415;47.536;19.066;2023-07-29T03:22:23;-18702.81;;;17.47;100.00
60583;BME280;46415;47.536;19.066;2023-07-29T03:25:26;-18702.28;;;17.45;100.00
60583;BME280;46415;47.536;19.066;2023-07-29T03:28:29;-18701.19;;;17.41;100.00
60583;BME280;46415;47.536;19.066;2023-07-29T03:31:32;-18701.72;;;17.43;100.00
60583;BME280;46415;47.536;19.066;2023-07-29T03:34:34;-18701.72;;;17.43;100.00
60583;BME280;46415;47.536;19.066;2023-07-29T03:37:37;-18704.59;;;17.54;100.00
60583;BME280;46415;47.536;19.066;2023-07-29T03:40:40;-18705.69;;;17.58;100.00
60583;BME280;46415;47.536;19.066;2023-07-29T03:43:43;-18706.09;;;17.60;100.00
60583;BME280;46415;47.536;19.066;2023-07-29T03:46:46;-18705.94;;;17.59;100.00
60583;BME280;46415;47.536;19.066;2023-07-29T03:49:49;-18706.63;;;17.62;100.00
60583;BME280;46415;47.536;19.066;2023-07-29T03:52:53;-18707.59;;;17.65;100.00
60583;BME280;46415;47.536;19.066;2023-07-29T03:55:56;-18708.28;;;17.68;100.00
60583;BME280;46415;47.536;19.066;2023-07-29T03:59:01;-18708.41;;;17.68;100.00
60583;BME280;46415;47.536;19.066;2023-07-29T04:02:04;-18708.00;;;17.67;100.00
60583;BME280;46415;47.536;19.066;2023-07-29T04:05:07;-18709.50;;;17.72;100.00
60583;BME280;46415;47.536;19.066;2023-07-29T04:08:10;-18713.16;;;17.86;100.00
60583;BME280;46415;47.536;19.066;2023-07-29T04:11:13;-18717.53;;;18.02;100.00
60583;BME280;46415;47.536;19.066;2023-07-29T04:14:16;-18719.41;;;18.09;100.00
60583;BME280;46415;47.536;19.066;2023-07-29T04:17:18;-18721.88;;;18.18;100.00
60583;BME280;46415;47.536;19.066;2023-07-29T04:20:21;-18725.94;;;18.33;100.00
60583;BME280;46415;47.536;19.066;2023-07-29T04:23:23;-18731.38;;;18.54;100.00
60583;BME280;46415;47.536;19.066;2023-07-29T04:26:26;-18736.97;;;18.74;100.00
60583;BME280;46415;47.536;19.066;2023-07-29T04:29:29;-18744.16;;;19.01;100.00
60583;BME280;46415;47.536;19.066;2023-07-29T04:32:31;-18748.78;;;19.18;100.00
60583;BME280;46415;47.536;19.066;2023-07-29T04:35:34;-18753.28;;;19.35;100.00
60583;BME280;46415;47.536;19.066;2023-07-29T04:38:37;-18759.94;;;19.60;100.00
60583;BME280;46415;47.536;19.066;2023-07-29T04:41:40;-18762.94;;;19.71;100.00
60583;BME280;46415;47.536;19.066;2023-07-29T04:44:43;-18762.25;;;19.69;100.00
60583;BME280;46415;47.536;19.066;2023-07-29T04:47:45;-18764.81;;;19.78;100.00
60583;BME280;46415;47.536;19.066;2023-07-29T04:50:48;-18768.50;;;19.92;100.00
60583;BME280;46415;47.536;19.066;2023-07-29T04:53:51;-18767.94;;;19.90;100.00
60583;BME280;46415;47.536;19.066;2023-07-29T04:56:53;-18765.63;;;19.81;100.00
60583;BME280;46415;47.536;19.066;2023-07-29T04:59:56;-18765.38;;;19.80;100.00
60583;BME280;46415;47.536;19.066;2023-07-29T05:02:58;-18767.81;;;19.89;100.00
60583;BME280;46415;47.536;19.066;2023-07-29T05:06:01;-18767.28;;;19.87;100.00
60583;BME280;46415;47.536;19.066;2023-07-29T05:09:16;-18772.44;;;20.07;100.00
60583;BME280;46415;47.536;19.066;2023-07-29T05:12:20;-18782.22;;;20.43;100.00
60583;BME280;46415;47.536;19.066;2023-07-29T05:15:22;-18793.34;;;20.85;100.00
60583;BME280;46415;47.536;19.066;2023-07-29T05:18:25;-18801.06;;;21.13;100.00
60583;BME280;46415;47.536;19.066;2023-07-29T05:21:27;-18809.34;;;21.44;100.00
60583;BME280;46415;47.536;19.066;2023-07-29T05:24:30;-18812.59;;;21.56;100.00
60583;BME280;46415;47.536;19.066;2023-07-29T05:27:32;-18815.31;;;21.67;100.00
60583;BME280;46415;47.536;19.066;2023-07-29T05:30:35;-18818.28;;;21.78;100.00
60583;BME280;46415;47.536;19.066;2023-07-29T05:33:40;-18821.00;;;21.88;100.00
60583;BME280;46415;47.536;19.066;2023-07-29T05:36:43;-18814.75;;;21.65;100.00
60583;BME280;46415;47.536;19.066;2023-07-29T05:39:46;-18820.84;;;21.87;100.00
60583;BME280;46415;47.536;19.066;2023-07-29T05:42:49;-18824.78;;;22.02;100.00
60583;BME280;46415;47.536;19.066;2023-07-29T05:45:51;-18829.53;;;22.20;100.00
60583;BME280;46415;47.536;19.066;2023-07-29T05:49:04;-18827.37;;;22.12;100.00
60583;BME280;46415;47.536;19.066;2023-07-29T05:52:06;-18830.22;;;22.22;100.00
60583;BME280;46415;47.536;19.066;2023-07-29T05:55:10;-18835.63;;;22.43;100.00
60583;BME280;46415;47.536;19.066;2023-07-29T05:58:12;-18839.28;;;22.56;100.00
60583;BME280;46415;47.536;19.066;2023-07-29T06:01:15;-18841.03;;;22.63;100.00
60583;BME280;46415;47.536;19.066;2023-07-29T06:04:17;-18845.94;;;22.81;100.00
60583;BME280;46415;47.536;19.066;2023-07-29T06:07:20;-18844.31;;;22.75;100.00
60583;BME280;46415;47.536;19.066;2023-07-29T06:10:22;-18844.56;;;22.76;100.00
60583;BME280;46415;47.536;19.066;2023-07-29T06:13:25;-18843.22;;;22.71;100.00
60583;BME280;46415;47.536;19.066;2023-07-29T06:16:29;-18841.03;;;22.63;100.00
60583;BME280;46415;47.536;19.066;2023-07-29T06:19:31;-18841.84;;;22.66;100.00
60583;BME280;46415;47.536;19.066;2023-07-29T06:22:34;-18840.22;;;22.60;100.00
60583;BME280;46415;47.536;19.066;2023-07-29T06:25:37;-18843.75;;;22.73;100.00
60583;BME280;46415;47.536;19.066;2023-07-29T06:28:39;-18848.09;;;22.89;100.00
60583;BME280;46415;47.536;19.066;2023-07-29T06:31:42;-18853.91;;;23.11;100.00
60583;BME280;46415;47.536;19.066;2023-07-29T06:34:44;-18859.72;;;23.33;100.00
60583;BME280;46415;47.536;19.066;2023-07-29T06:37:46;-18865.41;;;23.54;100.00
60583;BME280;46415;47.536;19.066;2023-07-29T06:40:49;-18874.75;;;23.89;97.61
60583;BME280;46415;47.536;19.066;2023-07-29T06:43:52;-18876.78;;;23.96;95.88
60583;BME280;46415;47.536;19.066;2023-07-29T06:46:54;-18882.47;;;24.18;92.58
60583;BME280;46415;47.536;19.066;2023-07-29T06:49:57;-18882.72;;;24.19;92.35
60583;BME280;46415;47.536;19.066;2023-07-29T06:52:59;-18885.97;;;24.31;90.05
60583;BME280;46415;47.536;19.066;2023-07-29T06:56:02;-18889.50;;;24.44;90.74
60583;BME280;46415;47.536;19.066;2023-07-29T06:59:05;-18887.31;;;24.36;90.14
60583;BME280;46415;47.536;19.066;2023-07-29T07:02:07;-18894.50;;;24.63;85.79
60583;BME280;46415;47.536;19.066;2023-07-29T07:05:10;-18893.81;;;24.60;86.44
60583;BME280;46415;47.536;19.066;2023-07-29T07:08:13;-18897.19;;;24.73;89.70
60583;BME280;46415;47.536;19.066;2023-07-29T07:11:15;-18899.63;;;24.82;86.95
60583;BME280;46415;47.536;19.066;2023-07-29T07:14:18;-18905.44;;;25.04;89.48
60583;BME280;46415;47.536;19.066;2023-07-29T07:17:21;-18910.28;;;25.22;86.66
60583;BME280;46415;47.536;19.066;2023-07-29T07:20:23;-18914.88;;;25.39;84.74
60583;BME280;46415;47.536;19.066;2023-07-29T07:23:26;-18922.19;;;25.67;85.40
60583;BME280;46415;47.536;19.066;2023-07-29T07:26:28;-18924.88;;;25.77;80.70
60583;BME280;46415;47.536;19.066;2023-07-29T07:29:31;-18921.38;;;25.64;82.86
60583;BME280;46415;47.536;19.066;2023-07-29T07:32:33;-18922.44;;;25.68;82.65
60583;BME280;46415;47.536;19.066;2023-07-29T07:35:36;-18925.69;;;25.80;84.08
60583;BME280;46415;47.536;19.066;2023-07-29T07:38:38;-18928.38;;;25.90;81.90
60583;BME280;46415;47.536;19.066;2023-07-29T07:41:41;-18928.38;;;25.90;80.43
60583;BME280;46415;47.536;19.066;2023-07-29T07:44:43;-18925.97;;;25.81;78.00
60583;BME280;46415;47.536;19.066;2023-07-29T07:47:46;-18924.88;;;25.77;80.21
60583;BME280;46415;47.536;19.066;2023-07-29T07:50:48;-18929.75;;;25.95;81.70
60583;BME280;46415;47.536;19.066;2023-07-29T07:53:51;-18937.28;;;26.23;78.81
60583;BME280;46415;47.536;19.066;2023-07-29T07:56:53;-18939.19;;;26.30;80.23
60583;BME280;46415;47.536;19.066;2023-07-29T07:59:56;-18939.59;;;26.32;80.98
60583;BME280;46415;47.536;19.066;2023-07-29T08:02:58;-18940.25;;;26.34;79.05
60583;BME280;46415;47.536;19.066;2023-07-29T08:06:01;-18938.38;;;26.27;77.97
60583;BME280;46415;47.536;19.066;2023-07-29T08:09:04;-18943.78;;;26.48;76.84
60583;BME280;46415;47.536;19.066;2023-07-29T08:12:07;-18943.50;;;26.47;73.59
60583;BME280;46415;47.536;19.066;2023-07-29T08:15:10;-18946.75;;;26.59;73.49
60583;BME280;46415;47.536;19.066;2023-07-29T08:18:12;-18950.37;;;26.72;74.66
60583;BME280;46415;47.536;19.066;2023-07-29T08:21:15;-18957.00;;;26.97;75.06
60583;BME280;46415;47.536;19.066;2023-07-29T08:24:17;-18959.28;;;27.06;75.91
60583;BME280;46415;47.536;19.066;2023-07-29T08:27:20;-18964.25;;;27.25;72.92
60583;BME280;46415;47.536;19.066;2023-07-29T08:30:22;-18968.16;;;27.39;71.33
60583;BME280;46415;47.536;19.066;2023-07-29T08:33:25;-18964.25;;;27.25;64.73
60583;BME280;46415;47.536;19.066;2023-07-29T08:36:27;-18963.72;;;27.23;68.67
60583;BME280;46415;47.536;19.066;2023-07-29T08:39:30;-18971.28;;;27.51;66.36
60583;BME280;46415;47.536;19.066;2023-07-29T08:42:32;-18978.13;;;27.77;67.20
60583;BME280;46415;47.536;19.066;2023-07-29T08:45:36;-18980.69;;;27.86;67.34
60583;BME280;46415;47.536;19.066;2023-07-29T08:48:40;-18979.22;;;27.81;64.66
60583;BME280;46415;47.536;19.066;2023-07-29T08:51:42;-18983.38;;;27.96;61.29
60583;BME280;46415;47.536;19.066;2023-07-29T08:54:46;-18987.03;;;28.10;60.73
60583;BME280;46415;47.536;19.066;2023-07-29T08:57:49;-18991.59;;;28.27;59.32
60583;BME280;46415;47.536;19.066;2023-07-29T09:00:52;-18987.28;;;28.11;53.18
60583;BME280;46415;47.536;19.066;2023-07-29T09:03:54;-18991.47;;;28.27;56.92
60583;BME280;46415;47.536;19.066;2023-07-29T09:06:57;-18995.25;;;28.41;53.34
60583;BME280;46415;47.536;19.066;2023-07-29T09:10:01;-18995.25;;;28.41;53.59
60583;BME280;46415;47.536;19.066;2023-07-29T09:13:04;-18996.31;;;28.45;50.87
60583;BME280;46415;47.536;19.066;2023-07-29T09:16:06;-18997.25;;;28.49;52.29
60583;BME280;46415;47.536;19.066;2023-07-29T09:19:09;-19001.28;;;28.64;51.74
60583;BME280;46415;47.536;19.066;2023-07-29T09:22:20;-18995.91;;;28.43;49.65
60583;BME280;46415;47.536;19.066;2023-07-29T09:25:24;-18999.53;;;28.57;49.87
60583;BME280;46415;47.536;19.066;2023-07-29T09:28:26;-18999.94;;;28.59;51.32
60583;BME280;46415;47.536;19.066;2023-07-29T09:31:34;-19006.53;;;28.84;50.14
60583;BME280;46415;47.536;19.066;2023-07-29T09:34:41;-19003.03;;;28.70;50.20
60583;BME280;46415;47.536;19.066;2023-07-29T09:37:43;-19006.28;;;28.83;49.47
60583;BME280;46415;47.536;19.066;2023-07-29T09:40:46;-19005.59;;;28.80;49.91
60583;BME280;46415;47.536;19.066;2023-07-29T09:43:54;-19009.38;;;28.94;50.98
60583;BME280;46415;47.536;19.066;2023-07-29T09:46:57;-19010.59;;;28.99;48.83
60583;BME280;46415;47.536;19.066;2023-07-29T09:50:00;-19010.03;;;28.97;49.48
60583;BME280;46415;47.536;19.066;2023-07-29T09:53:03;-19011.25;;;29.01;47.86
60583;BME280;46415;47.536;19.066;2023-07-29T09:56:06;-19008.97;;;28.93;47.60
60583;BME280;46415;47.536;19.066;2023-07-29T09:59:08;-19007.88;;;28.89;47.76
60583;BME280;46415;47.536;19.066;2023-07-29T10:02:15;-19007.75;;;28.88;48.11
60583;BME280;46415;47.536;19.066;2023-07-29T10:05:19;-19007.63;;;28.88;47.70
60583;BME280;46415;47.536;19.066;2023-07-29T10:08:22;-19011.66;;;29.03;47.25
60583;BME280;46415;47.536;19.066;2023-07-29T10:11:26;-19014.06;;;29.12;45.94
60583;BME280;46415;47.536;19.066;2023-07-29T10:14:29;-19022.81;;;29.45;47.25
60583;BME280;46415;47.536;19.066;2023-07-29T10:17:33;-19032.34;;;29.81;45.44
60583;BME280;46415;47.536;19.066;2023-07-29T10:20:36;-19036.25;;;29.95;43.74
60583;BME280;46415;47.536;19.066;2023-07-29T10:23:45;-19039.34;;;30.07;44.79
60583;BME280;46415;47.536;19.066;2023-07-29T10:26:50;-19051.16;;;30.52;45.23
60583;BME280;46415;47.536;19.066;2023-07-29T10:29:53;-19055.88;;;30.69;42.54
60583;BME280;46415;47.536;19.066;2023-07-29T10:33:03;-19054.38;;;30.64;41.91
60583;BME280;46415;47.536;19.066;2023-07-29T10:36:07;-19063.78;;;30.99;42.95
60583;BME280;46415;47.536;19.066;2023-07-29T10:39:10;-19078.81;;;31.56;41.06
60583;BME280;46415;47.536;19.066;2023-07-29T10:42:13;-19089.53;;;31.96;39.90
60583;BME280;46415;47.536;19.066;2023-07-29T10:45:19;-19098.09;;;32.29;38.70
60583;BME280;46415;47.536;19.066;2023-07-29T10:51:35;-19076.38;;;31.47;40.65
60583;BME280;46415;47.536;19.066;2023-07-29T10:54:44;-19056.81;;;30.73;42.30
60583;BME280;46415;47.536;19.066;2023-07-29T10:57:47;-19055.72;;;30.69;43.80
60583;BME280;46415;47.536;19.066;2023-07-29T11:00:50;-19056.12;;;30.70;42.78
60583;BME280;46415;47.536;19.066;2023-07-29T11:10:16;-19040.81;;;30.13;43.36
60583;BME280;46415;47.536;19.066;2023-07-29T11:13:19;-19043.38;;;30.22;43.69
60583;BME280;46415;47.536;19.066;2023-07-29T11:16:21;-19045.78;;;30.31;44.72
60583;BME280;46415;47.536;19.066;2023-07-29T11:19:25;-19041.50;;;30.15;44.60
60583;BME280;46415;47.536;19.066;2023-07-29T11:22:28;-19044.97;;;30.28;45.76
60583;BME280;46415;47.536;19.066;2023-07-29T11:25:34;-19035.06;;;29.91;45.57
60583;BME280;46415;47.536;19.066;2023-07-29T11:28:38;-19035.59;;;29.93;45.28
60583;BME280;46415;47.536;19.066;2023-07-29T11:31:42;-19048.75;;;30.42;45.85
60583;BME280;46415;47.536;19.066;2023-07-29T11:34:44;-19059.47;;;30.83;44.84
60583;BME280;46415;47.536;19.066;2023-07-29T11:37:48;-19061.91;;;30.92;44.29
60583;BME280;46415;47.536;19.066;2023-07-29T11:41:00;-19056.81;;;30.73;45.69
60583;BME280;46415;47.536;19.066;2023-07-29T11:44:09;-19062.84;;;30.96;44.05
60583;BME280;46415;47.536;19.066;2023-07-29T11:47:12;-19062.03;;;30.93;44.46
60583;BME280;46415;47.536;19.066;2023-07-29T11:50:15;-19072.38;;;31.32;44.38
60583;BME280;46415;47.536;19.066;2023-07-29T11:53:18;-19079.22;;;31.57;42.94
60583;BME280;46415;47.536;19.066;2023-07-29T11:56:21;-19084.84;;;31.79;41.96
60583;BME280;46415;47.536;19.066;2023-07-29T11:59:23;-19086.19;;;31.84;42.09
60583;BME280;46415;47.536;19.066;2023-07-29T12:02:26;-19084.97;;;31.79;41.57
60583;BME280;46415;47.536;19.066;2023-07-29T12:05:29;-19068.06;;;31.15;42.95
60583;BME280;46415;47.536;19.066;2023-07-29T12:08:32;-19068.88;;;31.18;40.85
60583;BME280;46415;47.536;19.066;2023-07-29T12:11:35;-19058.16;;;30.78;41.48
60583;BME280;46415;47.536;19.066;2023-07-29T12:14:37;-19062.56;;;30.95;42.22
60583;BME280;46415;47.536;19.066;2023-07-29T12:17:40;-19066.88;;;31.11;40.96
60583;BME280;46415;47.536;19.066;2023-07-29T12:20:43;-19059.75;;;30.84;41.17
60583;BME280;46415;47.536;19.066;2023-07-29T12:23:46;-19058.16;;;30.78;42.05
60583;BME280;46415;47.536;19.066;2023-07-29T12:26:49;-19070.75;;;31.26;41.61
60583;BME280;46415;47.536;19.066;2023-07-29T12:29:52;-19073.31;;;31.35;39.61
60583;BME280;46415;47.536;19.066;2023-07-29T12:32:55;-19069.69;;;31.21;38.63
60583;BME280;46415;47.536;19.066;2023-07-29T12:35:58;-19058.69;;;30.80;39.54
60583;BME280;46415;47.536;19.066;2023-07-29T12:39:00;-19049.28;;;30.45;40.40
60583;BME280;46415;47.536;19.066;2023-07-29T12:42:03;-19048.75;;;30.42;41.27
60583;BME280;46415;47.536;19.066;2023-07-29T12:45:06;-19039.63;;;30.08;40.76
60583;BME280;46415;47.536;19.066;2023-07-29T12:48:09;-19047.13;;;30.36;42.32
60583;BME280;46415;47.536;19.066;2023-07-29T12:51:12;-19056.00;;;30.70;41.07
60583;BME280;46415;47.536;19.066;2023-07-29T12:54:15;-19049.16;;;30.44;41.17
60583;BME280;46415;47.536;19.066;2023-07-29T12:57:17;-19036.53;;;29.96;41.98
60583;BME280;46415;47.536;19.066;2023-07-29T13:00:20;-19040.97;;;30.13;42.05
60583;BME280;46415;47.536;19.066;2023-07-29T13:03:22;-19051.16;;;30.52;40.58
60583;BME280;46415;47.536;19.066;2023-07-29T13:06:25;-19046.72;;;30.35;39.34
60583;BME280;46415;47.536;19.066;2023-07-29T13:09:27;-19044.03;;;30.25;39.88
60583;BME280;46415;47.536;19.066;2023-07-29T13:12:30;-19054.13;;;30.63;40.29
60583;BME280;46415;47.536;19.066;2023-07-29T13:15:33;-19045.94;;;30.32;39.10
60583;BME280;46415;47.536;19.066;2023-07-29T13:18:35;-19047.53;;;30.38;39.42
60583;BME280;46415;47.536;19.066;2023-07-29T13:21:38;-19051.84;;;30.54;40.21
60583;BME280;46415;47.536;19.066;2023-07-29T13:24:40;-19054.00;;;30.62;38.68
60583;BME280;46415;47.536;19.066;2023-07-29T13:27:43;-19061.50;;;30.91;38.19
60583;BME280;46415;47.536;19.066;2023-07-29T13:30:45;-19056.00;;;30.70;38.72
60583;BME280;46415;47.536;19.066;2023-07-29T13:33:48;-19049.41;;;30.45;39.99
60583;BME280;46415;47.536;19.066;2023-07-29T13:36:50;-19046.31;;;30.33;39.84
60583;BME280;46415;47.536;19.066;2023-07-29T13:39:53;-19053.84;;;30.62;40.70
60583;BME280;46415;47.536;19.066;2023-07-29T13:42:55;-19061.78;;;30.92;40.25
60583;BME280;46415;47.536;19.066;2023-07-29T13:45:58;-19059.63;;;30.83;39.69
60583;BME280;46415;47.536;19.066;2023-07-29T13:49:01;-19055.72;;;30.69;40.07
60583;BME280;46415;47.536;19.066;2023-07-29T13:52:04;-19054.53;;;30.64;39.91
60583;BME280;46415;47.536;19.066;2023-07-29T13:55:07;-19057.59;;;30.76;39.31
60583;BME280;46415;47.536;19.066;2023-07-29T13:58:09;-19054.00;;;30.62;38.65
60583;BME280;46415;47.536;19.066;2023-07-29T14:01:12;-19057.59;;;30.76;38.20
60583;BME280;46415;47.536;19.066;2023-07-29T14:04:14;-19063.38;;;30.98;38.23
60583;BME280;46415;47.536;19.066;2023-07-29T14:07:17;-19066.47;;;31.09;38.11
60583;BME280;46415;47.536;19.066;2023-07-29T14:10:19;-19076.66;;;31.48;38.72
60583;BME280;46415;47.536;19.066;2023-07-29T14:13:22;-19089.78;;;31.97;37.53
60583;BME280;46415;47.536;19.066;2023-07-29T14:16:25;-19086.03;;;31.83;38.36
60583;BME280;46415;47.536;19.066;2023-07-29T14:19:27;-19090.19;;;31.99;36.78
60583;BME280;46415;47.536;19.066;2023-07-29T14:22:30;-19093.69;;;32.12;36.51
60583;BME280;46415;47.536;19.066;2023-07-29T14:25:32;-19091.81;;;32.05;35.92
60583;BME280;46415;47.536;19.066;2023-07-29T14:28:35;-19082.81;;;31.71;36.60
60583;BME280;46415;47.536;19.066;2023-07-29T14:31:38;-19067.00;;;31.11;37.94
60583;BME280;46415;47.536;19.066;2023-07-29T14:34:41;-19055.72;;;30.69;38.55
60583;BME280;46415;47.536;19.066;2023-07-29T14:37:43;-19056.41;;;30.71;38.84
60583;BME280;46415;47.536;19.066;2023-07-29T14:40:47;-19063.78;;;30.99;38.86
60583;BME280;46415;47.536;19.066;2023-07-29T14:43:50;-19068.63;;;31.17;39.19
60583;BME280;46415;47.536;19.066;2023-07-29T14:46:52;-19067.00;;;31.11;39.90
60583;BME280;46415;47.536;19.066;2023-07-29T14:49:55;-19060.28;;;30.86;39.50
60583;BME280;46415;47.536;19.066;2023-07-29T14:52:58;-19052.91;;;30.58;40.21
60583;BME280;46415;47.536;19.066;2023-07-29T14:56:00;-19045.53;;;30.30;40.64
60583;BME280;46415;47.536;19.066;2023-07-29T14:59:03;-19044.72;;;30.27;40.25
60583;BME280;46415;47.536;19.066;2023-07-29T15:02:06;-19039.88;;;30.09;40.78
60583;BME280;46415;47.536;19.066;2023-07-29T15:05:08;-19041.22;;;30.14;40.87
60583;BME280;46415;47.536;19.066;2023-07-29T15:08:11;-19040.81;;;30.13;41.13
60583;BME280;46415;47.536;19.066;2023-07-29T15:11:16;-19039.47;;;30.08;41.37
60583;BME280;46415;47.536;19.066;2023-07-29T15:14:18;-19040.41;;;30.11;42.23
60583;BME280;46415;47.536;19.066;2023-07-29T15:17:21;-19043.91;;;30.24;41.50
60583;BME280;46415;47.536;19.066;2023-07-29T15:20:23;-19046.19;;;30.33;41.77
60583;BME280;46415;47.536;19.066;2023-07-29T15:23:26;-19065.78;;;31.07;40.82
60583;BME280;46415;47.536;19.066;2023-07-29T15:26:28;-19089.00;;;31.94;39.68
60583;BME280;46415;47.536;19.066;2023-07-29T15:29:31;-19106.53;;;32.61;37.87
60583;BME280;46415;47.536;19.066;2023-07-29T15:32:34;-19117.00;;;33.00;38.66
60583;BME280;46415;47.536;19.066;2023-07-29T15:35:37;-19119.41;;;33.09;37.47
60583;BME280;46415;47.536;19.066;2023-07-29T15:38:43;-19106.16;;;32.59;37.22
60583;BME280;46415;47.536;19.066;2023-07-29T15:41:45;-19087.37;;;31.88;37.82
60583;BME280;46415;47.536;19.066;2023-07-29T15:44:48;-19074.25;;;31.39;39.89
60583;BME280;46415;47.536;19.066;2023-07-29T15:47:51;-19064.31;;;31.01;39.71
60583;BME280;46415;47.536;19.066;2023-07-29T15:50:53;-19049.69;;;30.46;42.74
60583;BME280;46415;47.536;19.066;2023-07-29T15:53:56;-19045.13;;;30.29;40.96
60583;BME280;46415;47.536;19.066;2023-07-29T15:56:58;-19040.41;;;30.11;41.75
60583;BME280;46415;47.536;19.066;2023-07-29T16:00:01;-19037.19;;;29.99;43.06